createdAt,value
2023-05-17T00:01:45.968Z,74.22
2023-05-17T00:04:12.585Z,74.10
2023-05-17T00:06:39.132Z,73.70
2023-05-17T00:09:05.776Z,74.06
2023-05-17T00:11:32.629Z,73.44
2023-05-17T00:13:59.303Z,73.35
2023-05-17T00:16:25.830Z,73.43
2023-05-17T00:18:52.589Z,73.61
2023-05-17T00:21:19.228Z,73.01
2023-05-17T00:23:45.690Z,72.59
2023-05-17T00:26:13.685Z,72.08
2023-05-17T00:28:40.312Z,72.71
2023-05-17T00:31:07.029Z,73.39
2023-05-17T00:33:33.481Z,74.48
2023-05-17T00:36:00.060Z,74.11
2023-05-17T00:38:26.548Z,73.94
2023-05-17T00:40:54.118Z,74.06
2023-05-17T00:43:20.744Z,74.56
2023-05-17T00:45:49.226Z,74.93
2023-05-17T00:48:16.211Z,75.77
2023-05-17T00:50:43.112Z,75.67
2023-05-17T00:53:09.845Z,75.49
2023-05-17T00:55:36.415Z,74.86
2023-05-17T00:58:03.017Z,74.13
2023-05-17T01:00:29.597Z,73.53
2023-05-17T01:02:56.181Z,74.22
2023-05-17T01:05:22.927Z,73.40
2023-05-17T01:07:49.376Z,73.81
2023-05-17T01:10:16.026Z,74.28
2023-05-17T01:12:55.630Z,74.11
2023-05-17T01:15:28.466Z,74.64
2023-05-17T01:18:01.174Z,73.96
2023-05-17T01:20:33.986Z,74.32
2023-05-17T01:23:34.614Z,75.03
2023-05-17T01:26:08.818Z,74.23
2023-05-17T01:28:38.547Z,74.13
2023-05-17T01:31:05.859Z,74.27
2023-05-17T01:33:32.685Z,74.39
2023-05-17T01:36:00.753Z,73.18
2023-05-17T01:38:27.191Z,73.79
2023-05-17T01:41:05.931Z,73.14
2023-05-17T01:43:45.956Z,73.93
2023-05-17T01:46:18.887Z,73.35
2023-05-17T01:48:52.832Z,73.99
2023-05-17T01:51:24.544Z,74.94
2023-05-17T01:53:57.081Z,74.15
2023-05-17T01:56:28.721Z,75.16
2023-05-17T01:58:57.109Z,74.82
2023-05-17T02:01:24.918Z,75.09
2023-05-17T02:03:51.666Z,74.75
2023-05-17T02:06:18.182Z,75.69
2023-05-17T02:08:44.786Z,74.64
2023-05-17T02:11:12.446Z,74.09
2023-05-17T02:13:38.933Z,74.65
2023-05-17T02:16:06.449Z,74.29
2023-05-17T02:18:35.571Z,74.35
2023-05-17T02:21:02.263Z,75.00
2023-05-17T02:23:28.807Z,73.73
2023-05-17T02:25:55.268Z,73.49
2023-05-17T02:28:21.773Z,74.09
2023-05-17T02:30:48.409Z,73.98
2023-05-17T02:33:14.923Z,73.80
2023-05-17T02:35:41.525Z,74.59
2023-05-17T02:38:08.025Z,74.93
2023-05-17T02:40:34.677Z,74.75
2023-05-17T02:43:02.640Z,75.00
2023-05-17T02:45:29.262Z,73.99
2023-05-17T02:47:55.954Z,73.12
2023-05-17T02:50:22.451Z,72.64
2023-05-17T02:52:48.967Z,72.16
2023-05-17T02:55:15.733Z,73.89
2023-05-17T02:57:42.565Z,72.78
2023-05-17T03:00:09.917Z,72.47
2023-05-17T03:02:36.550Z,72.37
2023-05-17T03:05:04.973Z,74.12
2023-05-17T03:07:31.860Z,74.39
2023-05-17T03:09:58.429Z,74.69
2023-05-17T03:12:29.358Z,74.39
2023-05-17T03:14:56.241Z,74.46
2023-05-17T03:17:23.710Z,74.90
2023-05-17T03:19:51.395Z,74.65
2023-05-17T03:22:17.965Z,74.97
2023-05-17T03:24:44.464Z,75.10
2023-05-17T03:27:11.265Z,76.00
2023-05-17T03:29:37.905Z,77.91
2023-05-17T03:32:05.459Z,77.49
2023-05-17T03:34:32.495Z,77.13
2023-05-17T03:36:59.175Z,77.72
2023-05-17T03:39:25.836Z,76.26
2023-05-17T03:41:52.345Z,76.15
2023-05-17T03:44:19.153Z,74.48
2023-05-17T03:46:46.216Z,74.13
2023-05-17T03:49:13.680Z,74.66
2023-05-17T03:51:40.863Z,75.36
2023-05-17T03:54:07.480Z,74.85
2023-05-17T03:56:33.970Z,75.25
2023-05-17T03:59:00.560Z,74.13
2023-05-17T04:01:27.272Z,74.26
2023-05-17T04:03:53.914Z,73.59
2023-05-17T04:06:21.955Z,72.58
2023-05-17T04:08:48.960Z,73.28
2023-05-17T04:11:15.474Z,73.48
2023-05-17T04:13:43.188Z,73.02
2023-05-17T04:16:10.052Z,73.38
2023-05-17T04:18:39.146Z,73.44
2023-05-17T04:21:06.656Z,74.21
2023-05-17T04:23:35.109Z,74.20
2023-05-17T04:26:04.158Z,75.29
2023-05-17T04:28:34.828Z,75.56
2023-05-17T04:31:02.455Z,75.61
2023-05-17T04:33:29.190Z,75.51
2023-05-17T04:35:56.767Z,75.95
2023-05-17T04:38:25.063Z,76.02
2023-05-17T04:40:51.715Z,75.93
2023-05-17T04:43:19.038Z,76.90
2023-05-17T04:45:46.731Z,76.60
2023-05-17T04:48:13.777Z,76.52
2023-05-17T04:50:40.688Z,76.70
2023-05-17T04:53:07.160Z,76.81
2023-05-17T04:55:36.130Z,92.25
2023-05-17T04:58:03.893Z,95.28
2023-05-17T05:00:31.679Z,93.83
2023-05-17T05:03:05.005Z,93.91
2023-05-17T05:05:31.968Z,79.60
2023-05-17T05:07:58.825Z,71.02
2023-05-17T05:10:28.693Z,71.67
2023-05-17T05:12:56.046Z,71.10
2023-05-17T05:15:23.225Z,71.59
2023-05-17T05:17:55.151Z,70.96
2023-05-17T05:20:21.908Z,70.89
2023-05-17T05:22:48.520Z,70.56
2023-05-17T05:25:17.488Z,71.04
2023-05-17T05:27:44.562Z,69.30
2023-05-17T05:30:13.472Z,70.00
2023-05-17T05:32:40.154Z,70.46
2023-05-17T05:35:07.527Z,70.84
2023-05-17T05:37:34.117Z,69.89
2023-05-17T05:40:00.677Z,69.06
2023-05-17T05:42:27.674Z,67.30
2023-05-17T05:44:54.161Z,67.67
2023-05-17T05:47:22.043Z,67.86
2023-05-17T05:49:48.653Z,68.04
2023-05-17T05:52:15.238Z,68.67
2023-05-17T05:54:42.718Z,67.32
2023-05-17T05:57:09.308Z,65.81
2023-05-17T05:59:35.862Z,64.34
2023-05-17T06:02:02.492Z,61.31
2023-05-17T06:04:36.799Z,62.21
2023-05-17T06:07:07.823Z,61.14
2023-05-17T06:09:34.526Z,60.26
2023-05-17T06:12:01.355Z,59.52
2023-05-17T06:14:27.853Z,61.63
2023-05-17T06:16:54.300Z,61.61
2023-05-17T06:19:21.175Z,60.75
2023-05-17T06:21:47.777Z,61.30
2023-05-17T06:24:14.252Z,61.13
2023-05-17T06:26:43.398Z,62.51
2023-05-17T06:29:10.519Z,61.56
2023-05-17T06:31:37.078Z,63.05
2023-05-17T06:34:03.594Z,61.25
2023-05-17T06:38:57.107Z,61.25
2023-05-17T06:41:23.790Z,61.97
2023-05-17T06:43:50.316Z,63.96
2023-05-17T06:46:16.794Z,63.48
2023-05-17T06:48:43.430Z,63.43
2023-05-17T06:51:10.038Z,63.48
2023-05-17T06:53:36.519Z,63.51
2023-05-17T06:56:03.122Z,63.79
2023-05-17T06:58:29.589Z,63.89
2023-05-17T07:00:57.394Z,64.69
2023-05-17T07:03:23.947Z,64.29
2023-05-17T07:05:50.924Z,64.57
2023-05-17T07:08:17.360Z,64.01
2023-05-17T07:10:44.240Z,64.65
2023-05-17T07:13:10.710Z,64.94
2023-05-17T07:15:40.128Z,65.06
2023-05-17T07:18:06.786Z,63.63
2023-05-17T07:20:33.406Z,65.82
2023-05-17T07:22:59.863Z,64.86
2023-05-17T07:25:26.422Z,63.23
2023-05-17T07:27:53.045Z,63.87
2023-05-17T07:30:19.559Z,64.01
2023-05-17T07:32:46.138Z,63.48
2023-05-17T07:35:12.607Z,63.42
2023-05-17T07:37:39.057Z,61.92
2023-05-17T07:40:06.257Z,62.63
2023-05-17T07:42:33.296Z,62.78
2023-05-17T07:44:59.784Z,61.58
2023-05-17T07:47:26.398Z,62.21
2023-05-17T07:49:52.910Z,60.73
2023-05-17T07:52:19.380Z,61.40
2023-05-17T07:54:45.866Z,62.14
2023-05-17T07:57:12.512Z,62.13
2023-05-17T07:59:38.968Z,62.76
2023-05-17T08:02:05.598Z,62.53
2023-05-17T08:04:32.400Z,62.52
2023-05-17T08:07:01.092Z,62.62
2023-05-17T08:09:30.369Z,63.58
2023-05-17T08:11:57.437Z,63.18
2023-05-17T08:14:24.707Z,62.95
2023-05-17T08:16:51.823Z,62.79
2023-05-17T08:19:18.637Z,62.22
2023-05-17T08:21:46.296Z,62.92
2023-05-17T08:24:12.900Z,63.27
2023-05-17T08:26:39.724Z,64.62
2023-05-17T08:29:06.381Z,63.13
2023-05-17T08:31:33.144Z,63.89
2023-05-17T08:33:59.971Z,63.09
2023-05-17T08:36:26.945Z,61.94
2023-05-17T08:38:53.413Z,63.23
2023-05-17T08:41:20.903Z,61.44
2023-05-17T08:43:49.078Z,60.47
2023-05-17T08:46:18.480Z,61.70
2023-05-17T08:48:46.707Z,61.56
2023-05-17T08:51:14.744Z,61.73
2023-05-17T08:53:42.528Z,60.89
2023-05-17T08:56:12.932Z,60.21
2023-05-17T08:58:55.607Z,61.50
2023-05-17T09:01:26.482Z,61.05
2023-05-17T09:03:54.397Z,60.32
2023-05-17T09:06:22.401Z,60.57
2023-05-17T09:08:53.289Z,60.73
2023-05-17T09:11:30.246Z,60.11
2023-05-17T09:14:06.720Z,59.49
2023-05-17T09:16:37.735Z,59.01
2023-05-17T09:19:05.906Z,59.40
2023-05-17T09:21:34.025Z,59.90
2023-05-17T09:24:07.966Z,59.61
2023-05-17T09:26:43.015Z,59.16
2023-05-17T09:29:14.247Z,57.04
2023-05-17T09:31:42.138Z,56.42
2023-05-17T09:34:09.365Z,56.83
2023-05-17T09:36:37.719Z,55.89
2023-05-17T09:39:06.196Z,56.88
2023-05-17T09:41:40.661Z,56.34
2023-05-17T09:44:11.914Z,56.79
2023-05-17T09:46:42.499Z,57.68
2023-05-17T09:49:09.395Z,58.20
2023-05-17T09:51:37.595Z,56.75
2023-05-17T09:54:06.650Z,57.11
2023-05-17T09:56:35.132Z,57.23
2023-05-17T09:59:02.440Z,57.27
2023-05-17T10:01:30.844Z,56.97
2023-05-17T10:04:01.794Z,57.37
2023-05-17T10:06:44.048Z,55.91
2023-05-17T10:09:14.716Z,55.36
2023-05-17T10:11:45.924Z,55.90
2023-05-17T10:14:22.960Z,56.16
2023-05-17T10:16:51.641Z,54.52
2023-05-17T10:19:20.894Z,54.28
2023-05-17T10:21:52.388Z,53.47
2023-05-17T10:24:21.685Z,54.34
2023-05-17T10:26:49.998Z,53.49
2023-05-17T10:29:16.934Z,51.85
2023-05-17T10:31:45.215Z,53.18
2023-05-17T10:34:14.121Z,52.04
2023-05-17T10:36:43.350Z,51.32
2023-05-17T10:39:10.704Z,51.76
2023-05-17T10:41:47.971Z,52.98
2023-05-17T10:44:16.583Z,54.47
2023-05-17T10:46:57.216Z,54.63
2023-05-17T10:49:29.880Z,54.23
2023-05-17T10:52:11.774Z,54.54
2023-05-17T10:54:41.883Z,54.06
2023-05-17T10:57:09.649Z,53.76
2023-05-17T10:59:36.089Z,52.21
2023-05-17T11:02:10.036Z,51.60
2023-05-17T11:04:44.955Z,51.86
2023-05-17T11:07:17.400Z,48.71
2023-05-17T11:09:45.295Z,51.36
2023-05-17T11:12:13.786Z,50.04
2023-05-17T11:14:46.207Z,51.77
2023-05-17T11:17:20.077Z,52.73
2023-05-17T11:20:07.603Z,53.98
2023-05-17T11:22:37.432Z,53.72
2023-05-17T11:25:08.522Z,53.06
2023-05-17T11:27:43.241Z,53.92
2023-05-17T11:30:28.972Z,53.31
2023-05-17T11:33:11.175Z,52.64
2023-05-17T11:35:40.659Z,49.79
2023-05-17T11:38:30.382Z,51.27
2023-05-17T11:40:57.816Z,48.51
2023-05-17T11:43:27.172Z,49.30
2023-05-17T11:45:57.532Z,48.73
2023-05-17T11:48:26.448Z,47.66
2023-05-17T11:50:55.294Z,46.92
2023-05-17T11:53:22.016Z,48.67
2023-05-17T11:55:53.161Z,48.79
2023-05-17T11:58:24.257Z,48.05
2023-05-17T12:00:56.545Z,48.42
2023-05-17T12:03:23.102Z,48.26
2023-05-17T12:05:52.063Z,47.02
2023-05-17T12:08:20.234Z,48.15
2023-05-17T12:10:49.327Z,46.89
2023-05-17T12:13:16.341Z,48.56
2023-05-17T12:15:46.973Z,48.11
2023-05-17T12:18:13.546Z,48.19
2023-05-17T12:21:00.123Z,47.72
2023-05-17T12:23:28.080Z,47.42
2023-05-17T12:26:03.415Z,46.68
2023-05-17T12:28:29.884Z,47.98
2023-05-17T12:30:58.751Z,48.53
2023-05-17T12:33:26.229Z,46.92
2023-05-17T12:35:53.103Z,46.68
2023-05-17T12:38:20.093Z,46.26
2023-05-17T12:40:46.954Z,46.90
2023-05-17T12:43:13.487Z,46.56
2023-05-17T12:45:43.062Z,46.88
2023-05-17T12:48:09.643Z,47.71
2023-05-17T12:50:36.147Z,45.89
2023-05-17T12:53:08.534Z,46.72
2023-05-17T12:55:37.429Z,44.64
2023-05-17T12:58:07.185Z,46.30
2023-05-17T13:00:33.681Z,45.00
2023-05-17T13:03:00.408Z,46.11
2023-05-17T13:05:26.939Z,43.77
2023-05-17T13:07:53.425Z,44.02
2023-05-17T13:10:27.859Z,45.19
2023-05-17T13:12:59.150Z,46.23
2023-05-17T13:15:30.383Z,44.78
2023-05-17T13:17:57.193Z,45.28
2023-05-17T13:20:23.743Z,47.28
2023-05-17T13:22:50.699Z,46.72
2023-05-17T13:25:17.254Z,48.33
2023-05-17T13:27:48.511Z,46.48
2023-05-17T13:30:16.397Z,44.77
2023-05-17T13:32:44.230Z,46.42
2023-05-17T13:35:11.183Z,44.84
2023-05-17T13:37:37.737Z,45.70
2023-05-17T13:40:04.915Z,45.92
2023-05-17T13:42:32.082Z,46.18
2023-05-17T13:44:58.669Z,45.81
2023-05-17T13:47:25.387Z,45.30
2023-05-17T13:49:51.925Z,43.68
2023-05-17T13:52:18.861Z,44.79
2023-05-17T13:54:45.356Z,45.38
2023-05-17T13:57:12.023Z,46.15
2023-05-17T13:59:39.194Z,44.25
2023-05-17T14:02:05.903Z,45.83
2023-05-17T14:04:32.534Z,44.46
2023-05-17T14:06:59.213Z,44.34
2023-05-17T14:09:25.689Z,43.52
2023-05-17T14:11:52.190Z,44.71
2023-05-17T14:14:18.816Z,44.49
2023-05-17T14:16:45.939Z,44.13
2023-05-17T14:19:12.438Z,44.81
2023-05-17T14:21:38.913Z,44.72
2023-05-17T14:24:05.696Z,45.37
2023-05-17T14:26:32.174Z,46.14
2023-05-17T14:28:58.720Z,44.81
2023-05-17T14:31:26.440Z,42.72
2023-05-17T14:33:52.930Z,43.59
2023-05-17T14:36:19.425Z,44.57
2023-05-17T14:38:45.864Z,43.94
2023-05-17T14:41:12.310Z,44.59
2023-05-17T14:43:38.763Z,44.26
2023-05-17T14:46:05.323Z,43.56
2023-05-17T14:48:32.920Z,43.87
2023-05-17T14:50:59.518Z,43.43
2023-05-17T14:53:29.122Z,43.74
2023-05-17T14:55:57.288Z,43.19
2023-05-17T14:58:23.836Z,44.17
2023-05-17T15:00:56.292Z,42.22
2023-05-17T15:03:26.001Z,42.52
2023-05-17T15:05:56.921Z,43.44
2023-05-17T15:08:23.399Z,41.38
2023-05-17T15:10:51.150Z,41.35
2023-05-17T15:13:18.451Z,41.60
2023-05-17T15:15:46.765Z,42.29
2023-05-17T15:18:15.929Z,43.77
2023-05-17T15:20:42.446Z,39.90
2023-05-17T15:23:09.506Z,40.38
2023-05-17T15:25:36.371Z,40.56
2023-05-17T15:28:02.921Z,42.60
2023-05-17T15:30:29.506Z,41.41
2023-05-17T15:32:59.590Z,40.89
2023-05-17T15:35:26.591Z,41.72
2023-05-17T15:37:55.857Z,42.18
2023-05-17T15:40:22.552Z,41.83
2023-05-17T15:42:51.143Z,41.79
2023-05-17T15:45:18.448Z,40.50
2023-05-17T15:47:45.689Z,40.55
2023-05-17T15:50:12.428Z,41.43
2023-05-17T15:52:38.992Z,41.01
2023-05-17T15:55:05.831Z,41.63
2023-05-17T15:57:32.388Z,41.70
2023-05-17T15:59:58.920Z,41.01
2023-05-17T16:02:25.920Z,42.36
2023-05-17T16:04:52.429Z,41.58
2023-05-17T16:07:18.941Z,40.92
2023-05-17T16:09:45.439Z,40.87
2023-05-17T16:12:12.150Z,42.27
2023-05-17T16:14:40.581Z,41.85
2023-05-17T16:17:07.080Z,41.89
2023-05-17T16:19:34.312Z,40.88
2023-05-17T16:22:01.413Z,41.63
2023-05-17T16:24:28.084Z,40.81
2023-05-17T16:26:54.554Z,41.03
2023-05-17T16:29:21.233Z,40.62
2023-05-17T16:31:48.087Z,39.70
2023-05-17T16:34:14.614Z,40.81
2023-05-17T16:36:41.229Z,40.17
2023-05-17T16:39:07.814Z,40.88
2023-05-17T16:41:35.738Z,39.91
2023-05-17T16:44:02.267Z,39.93
2023-05-17T16:46:28.751Z,40.09
2023-05-17T16:48:55.791Z,40.63
2023-05-17T16:51:22.435Z,40.56
2023-05-17T16:53:48.916Z,40.71
2023-05-17T16:56:15.392Z,40.69
2023-05-17T16:58:41.940Z,40.46
2023-05-17T17:01:08.585Z,41.08
2023-05-17T17:03:35.205Z,41.34
2023-05-17T17:06:01.783Z,41.56
2023-05-17T17:08:28.244Z,42.78
2023-05-17T17:10:54.759Z,42.29
2023-05-17T17:13:21.663Z,41.86
2023-05-17T17:15:48.750Z,42.12
2023-05-17T17:18:15.272Z,41.62
2023-05-17T17:20:41.846Z,41.68
2023-05-17T17:23:08.583Z,42.03
2023-05-17T17:25:35.090Z,41.06
2023-05-17T17:28:01.517Z,42.34
2023-05-17T17:30:28.389Z,43.12
2023-05-17T17:32:55.180Z,42.95
2023-05-17T17:35:21.835Z,43.37
2023-05-17T17:37:48.281Z,43.07
2023-05-17T17:40:14.796Z,43.32
2023-05-17T17:42:41.246Z,43.62
2023-05-17T17:45:08.242Z,43.42
2023-05-17T17:47:34.704Z,42.52
2023-05-17T17:50:01.207Z,42.92
2023-05-17T17:52:27.653Z,43.02
2023-05-17T17:54:54.246Z,42.68
2023-05-17T17:57:22.708Z,42.00
2023-05-17T17:59:49.272Z,41.98
2023-05-17T18:02:15.845Z,43.26
2023-05-17T18:04:42.529Z,42.62
2023-05-17T18:07:09.086Z,42.71
2023-05-17T18:09:35.607Z,43.59
2023-05-17T18:12:02.088Z,43.55
2023-05-17T18:14:28.621Z,43.29
2023-05-17T18:16:55.188Z,43.28
2023-05-17T18:19:21.814Z,43.30
2023-05-17T18:21:50.602Z,43.04
2023-05-17T18:24:17.119Z,43.23
2023-05-17T18:26:43.724Z,43.34
2023-05-17T18:29:10.337Z,44.42
2023-05-17T18:31:36.786Z,44.58
2023-05-17T18:34:03.270Z,44.59
2023-05-17T18:36:29.701Z,44.20
2023-05-17T18:38:58.623Z,44.84
2023-05-17T18:41:26.044Z,45.31
2023-05-17T18:43:53.151Z,45.55
2023-05-17T18:46:19.667Z,45.58
2023-05-17T18:48:46.168Z,46.11
2023-05-17T18:51:12.770Z,47.22
2023-05-17T18:53:39.234Z,47.55
2023-05-17T18:56:06.270Z,47.65
2023-05-17T18:58:32.728Z,47.86
2023-05-17T19:01:01.300Z,47.86
2023-05-17T19:03:28.093Z,48.55
2023-05-17T19:05:54.573Z,49.81
2023-05-17T19:08:21.102Z,50.82
2023-05-17T19:10:47.555Z,51.32
2023-05-17T19:13:14.004Z,51.96
2023-05-17T19:15:41.736Z,52.23
2023-05-17T19:18:08.283Z,52.80
2023-05-17T19:20:34.875Z,53.62
2023-05-17T19:23:01.383Z,53.77
2023-05-17T19:25:28.219Z,53.66
2023-05-17T19:27:54.638Z,53.98
2023-05-17T19:30:21.133Z,54.26
2023-05-17T19:32:47.655Z,54.85
2023-05-17T19:35:14.154Z,54.78
2023-05-17T19:37:40.672Z,54.71
2023-05-17T19:40:07.912Z,54.97
2023-05-17T19:42:34.570Z,55.80
2023-05-17T19:45:01.642Z,55.26
2023-05-17T19:47:28.180Z,55.29
2023-05-17T19:49:54.716Z,55.85
2023-05-17T19:52:21.211Z,55.91
2023-05-17T19:54:47.704Z,55.75
2023-05-17T19:57:14.197Z,56.15
2023-05-17T19:59:40.773Z,56.50
2023-05-17T20:02:07.411Z,57.10
2023-05-17T20:04:33.929Z,57.07
2023-05-17T20:07:00.354Z,56.56
2023-05-17T20:09:30.288Z,56.76
2023-05-17T20:11:57.106Z,57.20
2023-05-17T20:14:23.844Z,57.44
2023-05-17T20:16:50.511Z,57.56
2023-05-17T20:19:17.169Z,57.69
2023-05-17T20:21:43.700Z,57.90
2023-05-17T20:24:10.713Z,58.67
2023-05-17T20:26:37.587Z,58.37
2023-05-17T20:29:07.045Z,58.74
2023-05-17T20:31:35.275Z,58.77
2023-05-17T20:34:02.313Z,58.66
2023-05-17T20:36:28.839Z,58.58
2023-05-17T20:38:55.463Z,58.99
2023-05-17T20:41:21.891Z,59.57
2023-05-17T20:43:52.484Z,59.53
2023-05-17T20:46:19.037Z,59.75
2023-05-17T20:48:47.988Z,59.55
2023-05-17T20:51:15.013Z,60.51
2023-05-17T20:53:41.519Z,61.24
2023-05-17T20:56:08.020Z,61.32
2023-05-17T20:58:34.697Z,61.16
2023-05-17T21:01:01.393Z,62.16
2023-05-17T21:03:29.151Z,63.10
2023-05-17T21:05:55.789Z,63.46
2023-05-17T21:08:22.784Z,63.97
2023-05-17T21:10:49.682Z,64.67
2023-05-17T21:13:16.290Z,64.23
2023-05-17T21:15:42.792Z,64.17
2023-05-17T21:18:10.774Z,64.09
2023-05-17T21:20:38.514Z,65.38
2023-05-17T21:23:05.138Z,65.00
2023-05-17T21:25:31.830Z,64.86
2023-05-17T21:27:58.576Z,65.07
2023-05-17T21:30:25.064Z,65.32
2023-05-17T21:32:51.764Z,65.72
2023-05-17T21:35:18.243Z,66.02
2023-05-17T21:37:44.793Z,64.95
2023-05-17T21:40:11.622Z,63.08
2023-05-17T21:42:38.154Z,64.50
2023-05-17T21:45:05.334Z,63.22
2023-05-17T21:47:31.913Z,64.15
2023-05-17T21:49:58.495Z,65.33
2023-05-17T21:52:25.010Z,61.65
2023-05-17T21:54:51.645Z,61.94
2023-05-17T21:57:20.755Z,60.44
2023-05-17T21:59:48.388Z,59.61
2023-05-17T22:02:14.979Z,59.61
2023-05-17T22:04:41.671Z,58.50
2023-05-17T22:07:08.305Z,58.37
2023-05-17T22:09:34.838Z,58.47
2023-05-17T22:12:01.436Z,57.94
2023-05-17T22:14:33.028Z,57.46
2023-05-17T22:16:59.951Z,58.00
2023-05-17T22:19:26.475Z,57.67
2023-05-17T22:21:53.046Z,56.98
2023-05-17T22:24:20.313Z,57.27
2023-05-17T22:26:47.155Z,57.43
2023-05-17T22:29:13.675Z,57.46
2023-05-17T22:31:40.256Z,57.53
2023-05-17T22:34:06.815Z,57.18
2023-05-17T22:36:34.599Z,57.22
2023-05-17T22:39:01.387Z,56.54
2023-05-17T22:41:27.868Z,56.70
2023-05-17T22:43:54.386Z,57.12
2023-05-17T22:46:20.926Z,56.34
2023-05-17T22:48:47.634Z,56.12
2023-05-17T22:51:14.177Z,56.26
2023-05-17T22:53:40.637Z,55.90
2023-05-17T22:56:07.100Z,55.90
2023-05-17T22:58:33.745Z,56.28
2023-05-17T23:01:00.610Z,57.54
2023-05-17T23:03:27.203Z,57.14
2023-05-17T23:06:02.065Z,56.35
2023-05-17T23:08:32.274Z,55.66
2023-05-17T23:10:58.870Z,55.52
2023-05-17T23:13:26.068Z,55.90
2023-05-17T23:15:52.695Z,56.32
2023-05-17T23:18:19.509Z,56.27
2023-05-17T23:20:46.298Z,56.54
2023-05-17T23:23:13.383Z,57.24
2023-05-17T23:25:39.863Z,58.77
2023-05-17T23:28:06.891Z,59.29
2023-05-17T23:30:33.426Z,58.69
2023-05-17T23:33:00.158Z,59.89
2023-05-17T23:35:26.763Z,60.22
2023-05-17T23:37:53.390Z,61.34
2023-05-17T23:40:19.887Z,61.36
2023-05-17T23:42:46.604Z,62.28
2023-05-17T23:45:13.185Z,61.72
2023-05-17T23:47:40.933Z,61.28
2023-05-17T23:50:09.262Z,62.04
2023-05-17T23:52:38.868Z,62.04
2023-05-17T23:55:07.264Z,62.26
2023-05-17T23:57:34.492Z,61.89
